Time;durP1;ratioP1;P1;durP2;ratioP2;P2;SDS_P1;SDS_P2;PMS_P1;PMS_P2;Temp;Humidity;BMP_temperature;BMP_pressure;BME280_temperature;BME280_humidity;BME280_pressure;Samples;Min_cycle;Max_cycle;Signal;HPM_P1;HPM_P2
2022/08/25 00:01:13;;;;;;;12.18;10.45;;;;;;;19.44;91.30;101615.84;5093052;28;20026;-72
2022/08/25 00:03:40;;;;;;;13.50;10.75;;;;;;;19.43;91.51;101620.25;5093010;28;20103;-74
2022/08/25 00:06:06;;;;;;;13.30;10.50;;;;;;;19.44;91.86;101627.13;5093019;28;20020;-72
2022/08/25 00:08:33;;;;;;;13.25;10.60;;;;;;;19.33;92.00;101610.72;5092817;28;20028;-72
2022/08/25 00:11:01;;;;;;;12.70;10.40;;;;;;;19.31;92.53;101625.75;5092709;28;20032;-72
2022/08/25 00:13:28;;;;;;;12.25;10.70;;;;;;;19.20;93.13;101605.72;5092856;28;20024;-72
2022/08/25 00:15:54;;;;;;;15.27;10.68;;;;;;;19.28;93.00;101623.41;5092692;28;20517;-72
2022/08/25 00:18:19;;;;;;;13.95;10.95;;;;;;;19.27;93.32;101624.31;5092717;28;20024;-72
2022/08/25 00:20:46;;;;;;;15.80;11.75;;;;;;;19.25;93.11;101629.72;5092844;28;20474;-73
2022/08/25 00:23:11;;;;;;;12.52;10.80;;;;;;;19.19;92.75;101625.84;5092749;28;20111;-81
2022/08/25 00:25:37;;;;;;;14.02;11.20;;;;;;;19.12;92.78;101616.03;5092617;28;20119;-72
2022/08/25 00:28:02;;;;;;;12.32;10.48;;;;;;;19.12;93.30;101627.34;5092604;28;20046;-72
2022/08/25 00:30:28;;;;;;;13.20;11.80;;;;;;;19.11;93.62;101624.84;5091310;28;20044;-83
2022/08/25 00:32:54;;;;;;;15.63;11.77;;;;;;;19.05;93.47;101636.66;5092776;28;20096;-73
2022/08/25 00:35:19;;;;;;;15.00;12.68;;;;;;;19.06;94.07;101621.78;5092528;28;20024;-72
2022/08/25 00:37:44;;;;;;;15.80;13.43;;;;;;;19.08;94.18;101623.34;5092756;28;20379;-73
2022/08/25 00:40:10;;;;;;;15.18;13.45;;;;;;;18.96;94.17;101613.06;5092741;28;20707;-72
2022/08/25 00:42:36;;;;;;;15.70;14.10;;;;;;;18.90;94.41;101622.28;5096818;28;20038;-84
2022/08/25 00:45:03;;;;;;;17.48;13.13;;;;;;;18.97;94.50;101627.81;5096752;28;20445;-72
2022/08/25 00:47:28;;;;;;;14.93;13.35;;;;;;;18.86;94.30;101615.66;5096551;28;20027;-73
2022/08/25 00:49:58;;;;;;;19.00;13.15;;;;;;;18.89;94.88;101618.84;5096761;28;20386;-74
2022/08/25 00:52:37;;;;;;;15.50;12.73;;;;;;;18.97;93.92;101628.63;5096516;28;20024;-80
2022/08/25 00:55:08;;;;;;;15.00;12.70;;;;;;;18.92;94.33;101629.03;5096506;28;20024;-72
2022/08/25 00:57:39;;;;;;;15.60;13.15;;;;;;;18.86;94.46;101626.13;5096448;28;20059;-80
2022/08/25 01:00:13;;;;;;;17.35;15.55;;;;;;;18.89;94.85;101623.25;5096500;28;20020;-83
2022/08/25 01:02:38;;;;;;;17.10;13.43;;;;;;;18.86;94.54;101633.97;5096429;28;20115;-73
2022/08/25 01:05:04;;;;;;;16.73;13.68;;;;;;;18.79;94.57;101630.22;5096576;28;20107;-84
2022/08/25 01:07:29;;;;;;;15.95;14.15;;;;;;;18.73;94.47;101617.66;5096099;28;20036;-82
2022/08/25 01:09:55;;;;;;;15.98;13.75;;;;;;;18.58;94.70;101599.66;5096316;28;20024;-75
2022/08/25 01:12:21;;;;;;;17.38;14.65;;;;;;;18.64;94.92;101611.38;5095991;28;20028;-77
2022/08/25 01:14:47;;;;;;;17.60;15.07;;;;;;;18.65;95.46;101605.22;5096244;28;20210;-74
2022/08/25 01:17:13;;;;;;;17.13;15.20;;;;;;;18.67;95.44;101618.16;5096163;28;20085;-83
2022/08/25 01:19:39;;;;;;;18.25;14.18;;;;;;;18.65;94.98;101617.47;5096275;28;20107;-83
2022/08/25 01:22:04;;;;;;;15.73;14.07;;;;;;;18.58;95.13;101624.97;5096184;28;20024;-80
2022/08/25 01:24:37;;;;;;;17.38;15.27;;;;;;;18.59;95.08;101626.66;5095997;28;20107;-74
2022/08/25 01:27:04;;;;;;;18.92;15.48;;;;;;;18.50;95.38;101619.56;5095696;28;20020;-73
2022/08/25 01:29:29;;;;;;;17.70;15.07;;;;;;;18.45;95.19;101612.09;5095709;28;20043;-84
2022/08/25 01:31:58;;;;;;;19.15;15.50;;;;;;;18.35;95.73;101613.81;5095674;28;20042;-79
2022/08/25 01:34:30;;;;;;;16.27;14.57;;;;;;;18.48;95.10;101626.69;5095735;28;20414;-84
2022/08/25 01:36:57;;;;;;;17.77;14.27;;;;;;;18.40;95.21;101622.13;5095878;28;20016;-84
2022/08/25 01:39:24;;;;;;;18.65;14.43;;;;;;;18.21;95.12;101593.25;5095816;28;20031;-82
2022/08/25 01:42:01;;;;;;;17.90;15.55;;;;;;;18.42;93.95;101627.22;5095486;28;20024;-81
2022/08/25 01:44:28;;;;;;;19.50;15.48;;;;;;;18.38;94.58;101624.03;5095522;28;20066;-72
2022/08/25 01:46:54;;;;;;;16.40;14.57;;;;;;;18.35;94.24;101617.25;5095541;28;20051;-71
2022/08/25 01:49:20;;;;;;;18.83;15.25;;;;;;;18.28;93.98;101620.50;5095594;28;20063;-82
2022/08/25 01:52:00;;;;;;;16.65;14.73;;;;;;;18.22;94.05;101615.81;5095081;28;20023;-72
2022/08/25 01:54:25;;;;;;;27.15;15.57;;;;;;;18.22;93.93;101610.59;5093612;28;20036;-81
2022/08/25 01:56:51;;;;;;;19.30;15.43;;;;;;;18.23;94.06;101615.69;5095213;28;20107;-82
2022/08/25 01:59:18;;;;;;;21.27;16.30;;;;;;;18.30;92.62;101621.25;5095214;28;20357;-73
2022/08/25 02:01:44;;;;;;;17.75;15.52;;;;;;;18.20;93.43;101615.94;5095285;28;20468;-80
2022/08/25 02:04:09;;;;;;;18.60;15.13;;;;;;;18.26;92.89;101618.03;5095566;28;20065;-81
2022/08/25 02:06:34;;;;;;;22.73;16.40;;;;;;;18.24;92.22;101619.94;5095381;28;20442;-75
2022/08/25 02:09:06;;;;;;;20.92;17.25;;;;;;;18.21;92.10;101622.00;5095213;28;20028;-78
2022/08/25 02:11:32;;;;;;;25.52;18.27;;;;;;;18.29;89.65;101617.78;5094880;28;20114;-76
2022/08/25 02:13:58;;;;;;;20.58;17.33;;;;;;;18.21;89.24;101612.38;5094937;28;20028;-80
2022/08/25 02:16:31;;;;;;;21.85;17.13;;;;;;;18.10;90.68;101611.59;5095116;28;20050;-82
2022/08/25 02:18:57;;;;;;;22.73;17.58;;;;;;;18.09;90.40;101608.13;5095144;28;20020;-72
2022/08/25 02:21:23;;;;;;;23.35;18.02;;;;;;;18.04;89.67;101608.53;5093257;28;20032;-75
2022/08/25 02:23:48;;;;;;;23.38;17.67;;;;;;;18.03;89.82;101609.47;5094940;28;20065;-77
2022/08/25 02:26:15;;;;;;;23.17;17.88;;;;;;;17.92;90.38;101600.88;5095038;28;20035;-83
2022/08/25 02:28:42;;;;;;;20.58;16.73;;;;;;;18.00;90.62;101614.97;5094682;28;20035;-80
2022/08/25 02:31:07;;;;;;;20.85;16.83;;;;;;;17.98;90.57;101616.84;5094378;28;20131;-81
2022/08/25 02:33:32;;;;;;;24.85;17.10;;;;;;;17.93;90.45;101616.41;5094686;28;20099;-73
2022/08/25 02:35:59;;;;;;;22.20;17.65;;;;;;;17.94;89.06;101612.00;5094594;28;20425;-84
2022/08/25 02:38:26;;;;;;;18.58;16.67;;;;;;;17.84;89.27;101593.63;5094748;28;20039;-81
2022/08/25 02:40:52;;;;;;;21.48;17.00;;;;;;;17.78;90.79;101597.56;5094502;28;20468;-74
2022/08/25 02:43:18;;;;;;;21.48;16.92;;;;;;;17.90;90.19;101602.78;5094251;28;20028;-73
2022/08/25 02:45:43;;;;;;;19.08;16.27;;;;;;;17.81;90.71;101603.53;5094442;28;20024;-72
2022/08/25 02:48:08;;;;;;;21.58;17.10;;;;;;;17.78;90.39;101594.13;5094545;28;20031;-80
2022/08/25 02:50:34;;;;;;;21.10;17.23;;;;;;;17.81;90.66;101608.75;5094245;28;20361;-82
2022/08/25 02:52:59;;;;;;;21.08;17.30;;;;;;;17.74;91.02;101608.41;5094326;28;20387;-73
2022/08/25 02:55:24;;;;;;;19.60;17.55;;;;;;;17.60;91.17;101588.59;5094102;28;20035;-77
2022/08/25 02:57:50;;;;;;;20.10;17.15;;;;;;;17.62;90.17;101580.63;5094138;28;20024;-76
2022/08/25 03:00:16;;;;;;;22.58;17.73;;;;;;;17.69;90.68;101600.06;5092153;28;20036;-77
2022/08/25 03:02:42;;;;;;;19.77;17.50;;;;;;;17.57;91.10;101582.78;5094160;28;20047;-75
2022/08/25 03:05:09;;;;;;;19.65;17.10;;;;;;;17.57;90.71;101582.78;5093660;28;20051;-74
2022/08/25 03:07:36;;;;;;;21.42;17.77;;;;;;;17.65;89.31;101598.66;5093976;28;20024;-81
2022/08/25 03:10:06;;;;;;;21.30;18.40;;;;;;;17.60;89.89;101596.44;5094048;28;20028;-76
2022/08/25 03:12:31;;;;;;;19.60;17.10;;;;;;;17.61;89.18;101592.03;5093508;28;20024;-75
2022/08/25 03:14:57;;;;;;;20.77;18.42;;;;;;;17.54;90.59;101590.88;5093842;28;20042;-74
2022/08/25 03:17:22;;;;;;;23.23;18.45;;;;;;;17.39;90.41;101582.47;5092437;28;20055;-73
2022/08/25 03:19:47;;;;;;;24.90;18.10;;;;;;;17.48;90.19;101593.00;5093824;28;20052;-81
2022/08/25 03:22:13;;;;;;;24.80;18.48;;;;;;;17.30;90.75;101568.34;5092482;28;20532;-79
2022/08/25 03:24:38;;;;;;;21.92;19.15;;;;;;;17.35;89.71;101574.06;5093739;28;20039;-74
2022/08/25 03:27:04;;;;;;;22.10;19.77;;;;;;;17.34;89.77;101566.34;5093585;28;20028;-78
2022/08/25 03:29:31;;;;;;;25.23;18.77;;;;;;;17.27;89.60;101557.34;5091450;28;20396;-74
2022/08/25 03:31:58;;;;;;;22.27;19.58;;;;;;;17.35;89.68;101571.44;5093653;28;20489;-79
2022/08/25 03:34:26;;;;;;;23.40;19.02;;;;;;;17.33;89.90;101573.34;5091922;28;20059;-73
2022/08/25 03:36:53;;;;;;;24.42;19.33;;;;;;;17.32;89.62;101571.69;5093442;28;20043;-79
2022/08/25 03:39:21;;;;;;;21.73;19.50;;;;;;;17.34;89.23;101580.22;5093549;28;20024;-81
2022/08/25 03:41:46;;;;;;;23.23;19.85;;;;;;;17.29;89.53;101573.69;5093276;28;20027;-76
2022/08/25 03:44:13;;;;;;;23.60;20.45;;;;;;;17.15;89.78;101559.16;5093237;28;20374;-76
2022/08/25 03:46:42;;;;;;;26.58;20.75;;;;;;;17.25;89.45;101570.50;5093241;28;20030;-75
2022/08/25 03:49:10;;;;;;;23.13;20.63;;;;;;;17.22;89.25;101567.34;5092003;28;20024;-82
2022/08/25 03:51:39;;;;;;;24.33;20.20;;;;;;;17.23;89.12;101563.75;5093444;28;20027;-81
2022/08/25 03:54:05;;;;;;;26.70;21.20;;;;;;;17.13;89.49;101564.50;5093185;28;20411;-80
2022/08/25 03:56:31;;;;;;;24.38;21.40;;;;;;;17.12;89.22;101569.84;5093153;28;20051;-81
2022/08/25 03:58:57;;;;;;;26.13;21.30;;;;;;;17.12;89.17;101562.00;5093071;28;20046;-80
2022/08/25 04:01:22;;;;;;;23.98;20.70;;;;;;;17.11;89.69;101562.97;5093117;28;20081;-82
2022/08/25 04:03:48;;;;;;;28.73;22.45;;;;;;;17.01;89.47;101546.34;5093951;28;20035;-81
2022/08/25 04:06:15;;;;;;;26.73;21.90;;;;;;;16.77;89.76;101526.44;5093061;28;20016;-71
2022/08/25 04:08:41;;;;;;;27.63;21.02;;;;;;;17.01;89.78;101555.03;5092885;28;20024;-79
2022/08/25 04:11:13;;;;;;;18.98;16.17;;;;;;;17.21;92.74;101540.41;5091739;28;20032;-83
2022/08/25 04:13:41;;;;;;;22.02;17.80;;;;;;;17.43;91.39;101547.34;5091500;28;20418;-73
2022/08/25 04:16:16;;;;;;;27.02;18.38;;;;;;;17.51;90.04;101544.13;5092781;28;20025;-80
2022/08/25 04:18:42;;;;;;;19.55;17.40;;;;;;;17.60;89.97;101545.94;5092816;28;20538;-73
2022/08/25 04:21:10;;;;;;;20.23;17.40;;;;;;;17.65;89.44;101546.44;5092956;28;20020;-77
2022/08/25 04:23:37;;;;;;;25.00;18.55;;;;;;;17.56;89.29;101541.94;5092850;28;20493;-76
2022/08/25 04:26:08;;;;;;;24.27;19.25;;;;;;;17.52;88.94;101548.38;5092862;28;20383;-82
2022/08/25 04:28:33;;;;;;;18.95;16.35;;;;;;;17.66;90.82;101550.69;5092571;28;20016;-77
2022/08/25 04:30:59;;;;;;;20.52;17.75;;;;;;;17.56;88.70;101540.16;5092300;28;20052;-74
2022/08/25 04:33:24;;;;;;;21.33;18.88;;;;;;;17.57;87.97;101546.22;5093087;28;20077;-73
2022/08/25 04:35:49;;;;;;;21.10;16.08;;;;;;;17.75;89.96;101540.34;5091017;28;20111;-72
2022/08/25 04:38:15;;;;;;;20.23;17.52;;;;;;;17.57;87.57;101538.38;5092622;28;20032;-73
2022/08/25 04:40:40;;;;;;;22.92;17.40;;;;;;;17.54;88.59;101549.91;5092665;28;20042;-72
2022/08/25 04:43:06;;;;;;;20.88;17.45;;;;;;;17.49;88.64;101531.97;5092642;28;20056;-72
2022/08/25 04:45:36;;;;;;;24.38;17.27;;;;;;;17.35;87.17;101518.41;5092442;28;20024;-81
2022/08/25 04:48:02;;;;;;;18.85;16.85;;;;;;;17.54;87.83;101533.41;5092597;28;20024;-85
2022/08/25 04:50:28;;;;;;;19.52;17.30;;;;;;;17.47;87.27;101533.06;5092470;28;20530;-82
2022/08/25 04:52:53;;;;;;;19.73;16.33;;;;;;;17.49;87.81;101524.16;5092577;28;20357;-83
2022/08/25 04:55:19;;;;;;;21.00;16.73;;;;;;;17.49;88.11;101529.38;5092792;28;20024;-74
2022/08/25 04:57:44;;;;;;;24.42;18.15;;;;;;;17.38;87.48;101511.13;5092572;28;20061;-73
2022/08/25 05:00:10;;;;;;;22.27;17.75;;;;;;;17.58;87.61;101530.41;5092637;28;20296;-78
2022/08/25 05:02:35;;;;;;;24.17;18.55;;;;;;;17.42;86.12;101530.00;5091096;28;20488;-75
2022/08/25 05:05:02;;;;;;;21.80;19.35;;;;;;;17.32;86.19;101511.66;5092457;28;20024;-75
2022/08/25 05:07:28;;;;;;;25.65;19.00;;;;;;;17.49;86.05;101531.97;5092687;28;20106;-74
2022/08/25 05:09:53;;;;;;;21.77;17.65;;;;;;;17.60;85.63;101543.34;5092516;28;20494;-76
2022/08/25 05:12:19;;;;;;;21.20;16.95;;;;;;;17.65;86.00;101533.38;5091020;28;20032;-74
2022/08/25 05:14:44;;;;;;;22.33;17.98;;;;;;;17.69;85.40;101539.97;5092232;28;20043;-74
2022/08/25 05:17:10;;;;;;;21.23;18.08;;;;;;;17.71;84.86;101541.56;5092374;28;20472;-74
2022/08/25 05:19:35;;;;;;;20.25;16.30;;;;;;;17.95;82.56;101548.34;5090864;28;20020;-75
2022/08/25 05:22:01;;;;;;;17.73;15.13;;;;;;;18.15;82.55;101550.13;5092278;28;20471;-75
2022/08/25 05:24:29;;;;;;;23.70;17.25;;;;;;;18.14;80.81;101552.88;5090402;28;20097;-73
2022/08/25 05:26:54;;;;;;;21.65;16.85;;;;;;;18.17;81.34;101561.28;5092335;28;20118;-74
2022/08/25 05:29:20;;;;;;;22.55;16.25;;;;;;;18.24;78.28;101572.06;5095666;28;20036;-72
2022/08/25 05:31:45;;;;;;;24.50;17.67;;;;;;;18.23;78.92;101568.63;5095709;28;20499;-75
2022/08/25 05:34:11;;;;;;;21.67;16.38;;;;;;;18.23;80.33;101573.84;5095786;28;20051;-75
2022/08/25 05:36:37;;;;;;;24.58;17.42;;;;;;;18.23;81.19;101570.41;5096053;28;20024;-75
2022/08/25 05:39:03;;;;;;;22.35;15.98;;;;;;;18.29;79.74;101573.34;5095758;28;20023;-74
2022/08/25 05:41:29;;;;;;;19.30;16.40;;;;;;;18.40;78.79;101577.66;5095675;28;20047;-74
2022/08/25 05:43:55;;;;;;;23.83;17.05;;;;;;;18.42;79.07;101582.78;5095538;28;20038;-75
2022/08/25 05:46:22;;;;;;;21.23;16.83;;;;;;;18.60;77.60;101582.03;5095456;28;20119;-76
2022/08/25 05:48:48;;;;;;;21.02;16.05;;;;;;;18.67;75.81;101560.59;5095646;28;20566;-75
2022/08/25 05:51:14;;;;;;;23.38;17.00;;;;;;;18.99;76.42;101581.41;5095475;28;20025;-75
2022/08/25 05:53:43;;;;;;;22.50;15.38;;;;;;;19.77;73.21;101584.06;5095504;28;20100;-75
2022/08/25 05:56:08;;;;;;;20.90;15.05;;;;;;;21.06;66.62;101577.41;5095454;28;20024;-75
2022/08/25 05:58:34;;;;;;;20.80;13.55;;;;;;;22.26;61.67;101578.72;5095382;28;20039;-76
2022/08/25 06:02:39;;;;;;;22.48;14.15;;;;;;;22.51;60.43;101574.41;5095016;28;20028;-75
2022/08/25 06:03:51;;;;;;;17.77;14.05;;;;;;;22.54;62.14;101563.59;5095361;28;20028;-75
2022/08/25 06:06:17;;;;;;;19.27;13.30;;;;;;;23.47;58.46;101579.41;5095583;28;20077;-76
2022/08/25 06:08:43;;;;;;;21.38;12.95;;;;;;;24.39;57.14;101569.53;5095382;28;20137;-76
2022/08/25 06:11:11;;;;;;;19.25;12.57;;;;;;;25.34;52.27;101576.41;5094984;28;20079;-76
2022/08/25 06:13:36;;;;;;;16.33;11.45;;;;;;;26.02;52.03;101580.84;5095051;28;20479;-75
2022/08/25 06:16:02;;;;;;;16.05;11.40;;;;;;;26.84;47.44;101582.63;5094889;28;20042;-75
2022/08/25 06:18:27;;;;;;;18.05;12.10;;;;;;;27.37;45.76;101580.63;5095057;28;20070;-75
2022/08/25 06:20:53;;;;;;;16.33;11.32;;;;;;;27.96;43.33;101567.09;5094906;28;20028;-75
2022/08/25 06:23:18;;;;;;;14.18;10.93;;;;;;;28.15;43.79;101545.16;5094952;28;20487;-84
2022/08/25 06:25:52;;;;;;;15.20;10.77;;;;;;;28.78;44.97;101572.50;5095034;28;20113;-75
2022/08/25 06:28:18;;;;;;;18.83;11.50;;;;;;;29.36;39.96;101572.06;5094910;28;20081;-75
2022/08/25 06:30:44;;;;;;;17.33;11.77;;;;;;;29.26;41.62;101572.47;5094427;28;20090;-75
2022/08/25 06:33:10;;;;;;;16.08;11.10;;;;;;;29.46;40.82;101555.72;5094755;28;20023;-77
2022/08/25 06:35:36;;;;;;;16.10;11.35;;;;;;;29.93;37.66;101560.03;5094642;28;20016;-76
2022/08/25 06:38:02;;;;;;;18.40;11.35;;;;;;;30.10;39.02;101574.59;5091956;28;20040;-75
2022/08/25 06:40:27;;;;;;;18.15;10.88;;;;;;;30.24;37.42;101559.41;5094536;28;20020;-76
2022/08/25 06:42:53;;;;;;;15.45;10.35;;;;;;;30.73;35.42;101572.19;5094377;28;20356;-75
2022/08/25 06:45:18;;;;;;;16.55;10.80;;;;;;;30.89;34.75;101580.75;5094483;28;20059;-75
2022/08/25 06:47:44;;;;;;;16.63;10.45;;;;;;;31.10;34.94;101569.75;5094369;28;20107;-77
2022/08/25 06:50:09;;;;;;;18.40;10.32;;;;;;;31.20;35.40;101567.47;5094373;28;20039;-76
2022/08/25 06:52:35;;;;;;;19.95;9.90;;;;;;;31.51;33.92;101576.47;5094299;28;20028;-84
2022/08/25 06:55:01;;;;;;;16.52;9.50;;;;;;;31.55;34.33;101567.81;5092660;28;20161;-76
2022/08/25 06:57:26;;;;;;;18.13;9.57;;;;;;;31.60;33.90;101541.28;5094023;28;20494;-81
2022/08/25 06:59:52;;;;;;;17.75;9.40;;;;;;;32.05;32.26;101559.78;5094201;28;20368;-83
2022/08/25 07:02:17;;;;;;;18.17;9.55;;;;;;;32.00;32.91;101550.81;5094321;28;20054;-80
2022/08/25 07:04:43;;;;;;;17.25;8.80;;;;;;;32.12;32.81;101557.06;5094239;28;20024;-79
2022/08/25 07:07:08;;;;;;;18.08;8.93;;;;;;;32.14;32.85;101563.81;5094254;28;20503;-83
2022/08/25 07:09:33;;;;;;;14.07;8.23;;;;;;;32.16;32.92;101561.75;5094024;28;20027;-84
2022/08/25 07:12:01;;;;;;;15.05;8.43;;;;;;;32.19;32.50;101560.50;5093731;28;20062;-82
2022/08/25 07:14:26;;;;;;;11.93;7.65;;;;;;;31.43;33.94;101561.53;5093848;28;20468;-82
2022/08/25 07:16:52;;;;;;;14.65;7.40;;;;;;;30.26;36.49;101563.50;5093824;28;20088;-82
2022/08/25 07:19:19;;;;;;;13.60;7.60;;;;;;;29.01;37.57;101544.81;5093974;28;20028;-80
2022/08/25 07:21:45;;;;;;;15.73;7.40;;;;;;;28.12;40.16;101553.53;5093896;28;20020;-82
2022/08/25 07:24:12;;;;;;;13.13;7.05;;;;;;;27.34;41.38;101560.63;5092102;28;20126;-83
2022/08/25 07:26:41;;;;;;;12.32;7.70;;;;;;;26.84;44.01;101556.13;5092403;28;20446;-82
2022/08/25 07:29:27;;;;;;;14.88;7.60;;;;;;;26.41;43.42;101550.72;5093785;28;20399;-83
2022/08/25 07:31:53;;;;;;;17.63;7.65;;;;;;;25.95;44.16;101558.75;5093186;28;20028;-81
2022/08/25 07:37:03;;;;;;;15.18;7.80;;;;;;;25.59;45.42;101563.00;5093689;28;20392;-82
2022/08/25 07:39:29;;;;;;;15.30;7.30;;;;;;;25.49;46.18;101560.59;5093363;28;20028;-82
2022/08/25 07:41:55;;;;;;;14.43;6.97;;;;;;;25.40;46.66;101543.97;5093529;28;20020;-85
2022/08/25 07:44:22;;;;;;;14.65;6.93;;;;;;;25.31;46.41;101549.50;5093660;28;20086;-83
2022/08/25 07:46:48;;;;;;;12.50;6.60;;;;;;;25.25;46.51;101550.19;5093437;28;20024;-85
2022/08/25 07:49:14;;;;;;;14.10;7.18;;;;;;;25.09;46.41;101535.25;5091498;28;20074;-83
2022/08/25 07:51:39;;;;;;;11.75;6.72;;;;;;;25.21;46.95;101552.38;5093231;28;20063;-80
2022/08/25 07:54:05;;;;;;;14.68;6.95;;;;;;;25.01;47.05;101522.06;5093162;28;20031;-83
2022/08/25 07:56:30;;;;;;;11.43;6.40;;;;;;;25.14;47.71;101554.88;5093115;28;20043;-84
2022/08/25 07:58:56;;;;;;;11.48;6.78;;;;;;;25.17;47.87;101551.06;5093270;28;20488;-84
2022/08/25 08:01:23;;;;;;;11.25;6.20;;;;;;;25.21;47.16;101549.72;5093273;28;20398;-76
2022/08/25 08:03:49;;;;;;;13.25;6.22;;;;;;;25.21;47.35;101531.22;5093197;28;20020;-79
2022/08/25 08:06:17;;;;;;;16.65;6.78;;;;;;;25.40;47.21;101548.44;5093067;28;20020;-82
2022/08/25 08:08:47;;;;;;;14.43;6.45;;;;;;;25.36;46.44;101529.44;5092970;28;20055;-76
2022/08/25 08:11:19;;;;;;;13.55;6.05;;;;;;;25.52;47.11;101535.63;5092798;28;20570;-77
2022/08/25 08:13:46;;;;;;;11.73;6.05;;;;;;;25.59;46.55;101532.09;5093032;28;20054;-80
2022/08/25 08:16:13;;;;;;;10.40;6.00;;;;;;;25.72;48.62;101534.16;5092985;28;20024;-77
2022/08/25 08:18:39;;;;;;;11.88;6.30;;;;;;;25.70;47.06;101529.06;5091521;28;20022;-77
2022/08/25 08:21:11;;;;;;;13.93;6.38;;;;;;;25.76;48.20;101534.63;5092652;28;20028;-80
2022/08/25 08:23:36;;;;;;;11.88;6.30;;;;;;;25.81;47.52;101533.09;5092738;28;20024;-81
2022/08/25 08:26:02;;;;;;;9.52;6.05;;;;;;;25.85;47.13;101530.91;5092751;28;20035;-76
2022/08/25 08:28:27;;;;;;;12.18;6.25;;;;;;;25.92;47.44;101524.72;5092829;28;20024;-76
2022/08/25 08:30:52;;;;;;;13.23;6.95;;;;;;;25.99;47.40;101536.22;5092618;28;20040;-79
2022/08/25 08:33:18;;;;;;;12.43;6.60;;;;;;;25.97;46.94;101538.25;5092533;28;20112;-75
2022/08/25 08:35:43;;;;;;;11.13;7.00;;;;;;;25.86;48.18;101522.81;5092600;28;20020;-77
2022/08/25 08:38:11;;;;;;;11.77;6.90;;;;;;;25.98;48.17;101528.47;5092639;28;20059;-78
2022/08/25 08:42:15;;;;;;;13.63;6.40;;;;;;;26.08;47.71;101531.69;5092544;28;20020;-80
2022/08/25 08:43:33;;;;;;;14.75;7.10;;;;;;;26.09;46.21;101512.16;5092599;28;20048;-76
2022/08/25 08:45:58;;;;;;;11.80;6.07;;;;;;;26.24;46.23;101526.19;5092683;28;20020;-81
2022/08/25 08:48:49;;;;;;;12.18;6.20;;;;;;;26.36;46.77;101528.41;5092471;28;20463;-81
2022/08/25 08:51:24;;;;;;;11.90;6.20;;;;;;;26.41;46.67;101532.16;5092460;28;20081;-82
2022/08/25 08:53:53;;;;;;;13.48;5.93;;;;;;;26.51;46.56;101531.88;5092731;28;20525;-83
2022/08/25 08:56:24;;;;;;;10.45;5.35;;;;;;;26.55;45.12;101514.63;5091383;28;20028;-82
2022/08/25 08:58:55;;;;;;;12.82;6.32;;;;;;;26.76;44.81;101527.13;5091453;28;20487;-77
2022/08/25 09:01:33;;;;;;;11.32;5.95;;;;;;;26.85;45.33;101523.34;5092798;28;20048;-78
2022/08/25 09:04:08;;;;;;;12.38;5.32;;;;;;;26.99;45.05;101529.59;5096292;28;20036;-74
2022/08/25 09:06:48;;;;;;;11.35;5.95;;;;;;;27.08;45.56;101521.38;5096392;28;20103;-74
2022/08/25 09:09:34;;;;;;;11.90;6.07;;;;;;;27.05;44.36;101519.13;5096431;28;20020;-76
2022/08/25 09:12:11;;;;;;;11.52;5.40;;;;;;;27.20;43.96;101536.78;5096071;28;20035;-75
2022/08/25 09:14:48;;;;;;;13.40;6.40;;;;;;;27.20;44.03;101534.13;5096432;28;20104;-82
2022/08/25 09:17:50;;;;;;;14.50;5.78;;;;;;;27.26;44.17;101522.78;5096093;28;20121;-75
2022/08/25 09:20:56;;;;;;;13.95;5.95;;;;;;;27.28;44.42;101523.41;5095858;28;20053;-76
2022/08/25 09:23:33;;;;;;;12.85;6.00;;;;;;;27.31;43.71;101517.72;5103366;28;20040;-76
2022/08/25 09:26:04;;;;;;;13.60;6.03;;;;;;;27.46;43.26;101534.41;5096074;28;20505;-73
2022/08/25 09:28:40;;;;;;;12.75;6.38;;;;;;;27.54;43.65;101526.31;5095901;28;20073;-77
2022/08/25 09:31:22;;;;;;;11.35;5.35;;;;;;;27.67;44.76;101520.31;5095495;28;20055;-78
2022/08/25 09:33:56;;;;;;;15.85;5.97;;;;;;;27.79;43.85;101516.13;5096041;28;20020;-77
2022/08/25 09:36:23;;;;;;;11.70;6.43;;;;;;;27.66;42.71;101490.31;5095772;28;20035;-74
2022/08/25 09:38:48;;;;;;;10.77;6.25;;;;;;;27.89;42.44;101513.94;5095961;28;20084;-77
2022/08/25 09:41:17;;;;;;;11.50;5.90;;;;;;;27.79;42.18;101502.84;5095638;28;20052;-75
2022/08/25 09:43:52;;;;;;;11.80;6.03;;;;;;;27.93;42.70;101511.75;5095910;28;20027;-75
2022/08/25 09:46:26;;;;;;;13.68;6.10;;;;;;;27.90;41.95;101489.03;5095621;28;20069;-75
2022/08/25 09:48:54;;;;;;;13.10;5.72;;;;;;;28.07;40.82;101505.47;5095440;28;20056;-75
2022/08/25 09:51:22;;;;;;;14.93;6.07;;;;;;;28.13;42.44;101506.56;5095604;28;20024;-75
2022/08/25 09:53:59;;;;;;;9.75;5.80;;;;;;;28.15;41.36;101497.38;5095650;28;20032;-73
2022/08/25 09:56:31;;;;;;;10.35;5.63;;;;;;;28.35;40.69;101509.97;5095749;28;20024;-77
2022/08/25 09:59:19;;;;;;;9.40;6.10;;;;;;;28.40;41.22;101504.84;5095513;28;20070;-75
2022/08/25 10:01:49;;;;;;;12.57;5.22;;;;;;;28.45;39.02;101486.50;5095334;28;20533;-73
2022/08/25 10:04:24;;;;;;;10.95;5.55;;;;;;;28.62;39.39;101492.31;5095176;28;20070;-71
2022/08/25 10:06:50;;;;;;;9.70;5.78;;;;;;;28.66;39.23;101489.03;5095341;28;20102;-80
2022/08/25 10:09:31;;;;;;;9.10;5.45;;;;;;;28.66;39.74;101475.75;5095290;28;20074;-76
2022/08/25 10:12:00;;;;;;;11.25;5.22;;;;;;;28.78;39.12;101484.75;5095022;28;20024;-79
2022/08/25 10:14:35;;;;;;;13.35;5.50;;;;;;;28.76;38.06;101476.19;5094860;28;20107;-73
2022/08/25 10:17:25;;;;;;;10.68;5.60;;;;;;;28.80;38.94;101480.06;5095045;28;20031;-77
2022/08/25 10:19:53;;;;;;;11.57;5.47;;;;;;;28.81;38.52;101478.25;5095054;28;20028;-73
2022/08/25 10:22:31;;;;;;;10.52;5.00;;;;;;;28.95;38.91;101474.63;5095022;28;20028;-74
2022/08/25 10:24:57;;;;;;;9.38;5.35;;;;;;;28.97;36.82;101458.44;5094903;28;20028;-74
2022/08/25 10:28:04;;;;;;;10.68;5.40;;;;;;;29.23;39.31;101463.00;5094783;28;20039;-73
2022/08/25 10:30:44;;;;;;;11.35;5.95;;;;;;;29.37;38.98;101465.44;5094778;28;20048;-74
2022/08/25 10:33:33;;;;;;;13.98;5.88;;;;;;;29.41;39.94;101461.34;5094747;28;20072;-74
2022/08/25 10:36:05;;;;;;;9.70;5.72;;;;;;;29.39;37.77;101459.91;5092466;28;20499;-73
2022/08/25 10:38:38;;;;;;;9.80;5.75;;;;;;;29.35;38.47;101446.19;5093335;28;20446;-73
2022/08/25 10:41:31;;;;;;;13.98;5.63;;;;;;;29.42;38.63;101443.53;5094546;28;20038;-72
2022/08/25 10:47:22;;;;;;;7.80;4.78;;;;;;;29.60;37.09;101440.28;5095643;28;20074;-71
2022/08/25 10:49:53;;;;;;;11.90;5.30;;;;;;;29.69;35.41;101439.00;5094495;28;20028;-73
2022/08/25 10:53:02;;;;;;;12.23;4.85;;;;;;;29.75;36.84;101437.38;5094669;28;20035;-75
2022/08/25 10:55:51;;;;;;;9.52;5.45;;;;;;;29.69;36.99;101429.22;5051103;28;20045;-72
2022/08/25 10:59:03;;;;;;;11.75;5.93;;;;;;;29.63;37.78;101423.91;5051960;28;20031;-72
2022/08/25 11:01:48;;;;;;;14.45;5.80;;;;;;;29.51;37.70;101414.91;4992312;28;20053;-73
2022/08/25 11:04:19;;;;;;;15.15;6.18;;;;;;;29.55;37.25;101416.13;4992448;28;20043;-75
2022/08/25 11:07:18;;;;;;;12.40;5.63;;;;;;;29.57;36.75;101422.06;4992203;28;20037;-73
2022/08/25 11:09:49;;;;;;;10.75;5.78;;;;;;;29.45;36.09;101405.88;4934423;29;20044;-74
2022/08/25 11:12:29;;;;;;;12.57;5.43;;;;;;;29.51;36.35;101414.91;4934486;29;20096;-74
2022/08/25 11:15:00;;;;;;;13.07;5.90;;;;;;;29.49;36.65;101416.94;4934602;29;20042;-74
2022/08/25 11:17:37;;;;;;;12.18;5.70;;;;;;;29.57;36.83;101422.06;4934299;29;20054;-72
2022/08/25 11:20:18;;;;;;;10.93;5.03;;;;;;;29.68;36.91;101413.44;4934207;29;20047;-74
2022/08/25 11:22:49;;;;;;;11.93;5.35;;;;;;;29.80;36.29;101413.63;4934221;29;20070;-72
2022/08/25 11:25:34;;;;;;;;;;;;;;;29.92;37.96;101406.63;4934034;29;20036;-74
2022/08/25 11:28:09;;;;;;;10.40;5.85;;;;;;;30.07;37.39;101398.38;4934205;29;20016;-75